sensor_id;sensor_type;location;lat;lon;timestamp;P1;durP1;ratioP1;P2;durP2;ratioP2
21769;SDS011;11046;49.558;8.674;2023-07-20T00:02:42;4.03;;;2.20;;
21769;SDS011;11046;49.558;8.674;2023-07-20T00:05:43;3.72;;;2.10;;
21769;SDS011;11046;49.558;8.674;2023-07-20T00:08:44;3.45;;;1.85;;
21769;SDS011;11046;49.558;8.674;2023-07-20T00:11:48;4.40;;;1.95;;
21769;SDS011;11046;49.558;8.674;2023-07-20T00:14:52;4.97;;;2.20;;
21769;SDS011;11046;49.558;8.674;2023-07-20T00:17:53;7.57;;;2.38;;
21769;SDS011;11046;49.558;8.674;2023-07-20T00:20:54;5.38;;;2.10;;
21769;SDS011;11046;49.558;8.674;2023-07-20T00:23:54;3.45;;;2.08;;
21769;SDS011;11046;49.558;8.674;2023-07-20T00:26:55;5.93;;;2.17;;
21769;SDS011;11046;49.558;8.674;2023-07-20T00:29:55;4.90;;;1.80;;
21769;SDS011;11046;49.558;8.674;2023-07-20T00:32:56;4.72;;;1.77;;
21769;SDS011;11046;49.558;8.674;2023-07-20T00:35:57;3.65;;;2.00;;
21769;SDS011;11046;49.558;8.674;2023-07-20T00:38:57;3.88;;;2.00;;
21769;SDS011;11046;49.558;8.674;2023-07-20T00:41:58;5.28;;;2.35;;
21769;SDS011;11046;49.558;8.674;2023-07-20T00:44:59;5.65;;;2.15;;
21769;SDS011;11046;49.558;8.674;2023-07-20T00:48:01;5.03;;;2.15;;
21769;SDS011;11046;49.558;8.674;2023-07-20T00:51:02;3.58;;;2.20;;
21769;SDS011;11046;49.558;8.674;2023-07-20T00:54:03;6.72;;;2.22;;
21769;SDS011;11046;49.558;8.674;2023-07-20T00:57:04;5.10;;;2.33;;
21769;SDS011;11046;49.558;8.674;2023-07-20T01:00:08;5.95;;;2.30;;
21769;SDS011;11046;49.558;8.674;2023-07-20T01:03:08;6.38;;;2.15;;
21769;SDS011;11046;49.558;8.674;2023-07-20T01:06:10;8.13;;;2.17;;
21769;SDS011;11046;49.558;8.674;2023-07-20T01:09:18;3.10;;;2.10;;
21769;SDS011;11046;49.558;8.674;2023-07-20T01:12:27;4.10;;;2.38;;
21769;SDS011;11046;49.558;8.674;2023-07-20T01:15:36;3.00;;;2.30;;
21769;SDS011;11046;49.558;8.674;2023-07-20T01:18:36;5.32;;;2.13;;
21769;SDS011;11046;49.558;8.674;2023-07-20T01:21:39;3.83;;;2.10;;
21769;SDS011;11046;49.558;8.674;2023-07-20T01:32:01;4.13;;;2.13;;
21769;SDS011;11046;49.558;8.674;2023-07-20T01:35:05;3.75;;;2.10;;
21769;SDS011;11046;49.558;8.674;2023-07-20T01:38:08;4.90;;;2.00;;
21769;SDS011;11046;49.558;8.674;2023-07-20T01:41:10;4.95;;;2.30;;
21769;SDS011;11046;49.558;8.674;2023-07-20T01:44:12;3.65;;;2.08;;
21769;SDS011;11046;49.558;8.674;2023-07-20T01:47:13;3.30;;;2.20;;
21769;SDS011;11046;49.558;8.674;2023-07-20T01:50:13;6.47;;;2.17;;
21769;SDS011;11046;49.558;8.674;2023-07-20T01:53:14;4.78;;;1.90;;
21769;SDS011;11046;49.558;8.674;2023-07-20T01:56:14;5.10;;;2.05;;
21769;SDS011;11046;49.558;8.674;2023-07-20T01:59:15;4.10;;;2.30;;
21769;SDS011;11046;49.558;8.674;2023-07-20T02:02:16;3.92;;;2.13;;
21769;SDS011;11046;49.558;8.674;2023-07-20T02:05:19;4.15;;;1.95;;
21769;SDS011;11046;49.558;8.674;2023-07-20T02:08:19;5.90;;;2.10;;
21769;SDS011;11046;49.558;8.674;2023-07-20T02:11:20;5.40;;;2.15;;
21769;SDS011;11046;49.558;8.674;2023-07-20T02:14:20;4.20;;;2.10;;
21769;SDS011;11046;49.558;8.674;2023-07-20T02:17:22;6.13;;;2.00;;
21769;SDS011;11046;49.558;8.674;2023-07-20T02:20:23;7.38;;;2.28;;
21769;SDS011;11046;49.558;8.674;2023-07-20T02:23:23;4.20;;;2.40;;
21769;SDS011;11046;49.558;8.674;2023-07-20T02:26:24;3.67;;;2.10;;
21769;SDS011;11046;49.558;8.674;2023-07-20T02:29:25;4.45;;;2.28;;
21769;SDS011;11046;49.558;8.674;2023-07-20T02:32:25;4.88;;;2.10;;
21769;SDS011;11046;49.558;8.674;2023-07-20T02:35:26;4.15;;;2.22;;
21769;SDS011;11046;49.558;8.674;2023-07-20T02:38:27;4.80;;;2.33;;
21769;SDS011;11046;49.558;8.674;2023-07-20T02:41:28;4.47;;;2.20;;
21769;SDS011;11046;49.558;8.674;2023-07-20T02:44:28;5.50;;;2.38;;
21769;SDS011;11046;49.558;8.674;2023-07-20T02:47:29;4.53;;;2.25;;
21769;SDS011;11046;49.558;8.674;2023-07-20T02:50:30;5.15;;;2.45;;
21769;SDS011;11046;49.558;8.674;2023-07-20T02:53:30;5.22;;;2.28;;
21769;SDS011;11046;49.558;8.674;2023-07-20T02:56:31;4.38;;;2.35;;
21769;SDS011;11046;49.558;8.674;2023-07-20T02:59:31;5.07;;;2.40;;
21769;SDS011;11046;49.558;8.674;2023-07-20T03:02:32;4.38;;;2.15;;
21769;SDS011;11046;49.558;8.674;2023-07-20T03:05:33;5.18;;;2.45;;
21769;SDS011;11046;49.558;8.674;2023-07-20T03:08:33;5.32;;;2.20;;
21769;SDS011;11046;49.558;8.674;2023-07-20T03:11:34;8.23;;;2.50;;
21769;SDS011;11046;49.558;8.674;2023-07-20T03:14:34;6.28;;;2.42;;
21769;SDS011;11046;49.558;8.674;2023-07-20T03:17:35;4.53;;;2.35;;
21769;SDS011;11046;49.558;8.674;2023-07-20T03:20:36;4.88;;;2.28;;
21769;SDS011;11046;49.558;8.674;2023-07-20T03:23:37;5.43;;;2.33;;
21769;SDS011;11046;49.558;8.674;2023-07-20T03:26:38;3.65;;;2.08;;
21769;SDS011;11046;49.558;8.674;2023-07-20T03:29:40;3.28;;;2.40;;
21769;SDS011;11046;49.558;8.674;2023-07-20T03:32:40;5.80;;;2.55;;
21769;SDS011;11046;49.558;8.674;2023-07-20T03:35:42;4.18;;;2.45;;
21769;SDS011;11046;49.558;8.674;2023-07-20T03:38:43;6.43;;;2.58;;
21769;SDS011;11046;49.558;8.674;2023-07-20T03:41:44;3.92;;;2.60;;
21769;SDS011;11046;49.558;8.674;2023-07-20T03:44:45;5.30;;;2.55;;
21769;SDS011;11046;49.558;8.674;2023-07-20T03:47:45;8.00;;;2.75;;
21769;SDS011;11046;49.558;8.674;2023-07-20T03:50:48;4.35;;;2.40;;
21769;SDS011;11046;49.558;8.674;2023-07-20T03:53:51;4.00;;;2.33;;
21769;SDS011;11046;49.558;8.674;2023-07-20T03:56:51;3.75;;;2.60;;
21769;SDS011;11046;49.558;8.674;2023-07-20T03:59:52;7.85;;;3.00;;
21769;SDS011;11046;49.558;8.674;2023-07-20T04:02:52;5.90;;;2.25;;
21769;SDS011;11046;49.558;8.674;2023-07-20T04:05:54;4.63;;;2.38;;
21769;SDS011;11046;49.558;8.674;2023-07-20T04:08:57;6.20;;;2.60;;
21769;SDS011;11046;49.558;8.674;2023-07-20T04:11:58;4.13;;;2.40;;
21769;SDS011;11046;49.558;8.674;2023-07-20T04:14:59;5.10;;;2.70;;
21769;SDS011;11046;49.558;8.674;2023-07-20T04:18:02;4.78;;;2.25;;
21769;SDS011;11046;49.558;8.674;2023-07-20T04:21:02;8.60;;;2.50;;
21769;SDS011;11046;49.558;8.674;2023-07-20T04:24:03;5.32;;;2.53;;
21769;SDS011;11046;49.558;8.674;2023-07-20T04:27:05;7.10;;;2.55;;
21769;SDS011;11046;49.558;8.674;2023-07-20T04:30:09;4.28;;;2.50;;
21769;SDS011;11046;49.558;8.674;2023-07-20T04:33:11;11.52;;;2.30;;
21769;SDS011;11046;49.558;8.674;2023-07-20T04:36:14;5.47;;;2.42;;
21769;SDS011;11046;49.558;8.674;2023-07-20T04:39:16;4.40;;;2.47;;
21769;SDS011;11046;49.558;8.674;2023-07-20T04:42:18;4.65;;;2.30;;
21769;SDS011;11046;49.558;8.674;2023-07-20T04:45:20;7.90;;;2.47;;
21769;SDS011;11046;49.558;8.674;2023-07-20T04:48:23;5.45;;;2.38;;
21769;SDS011;11046;49.558;8.674;2023-07-20T04:51:26;4.70;;;2.47;;
21769;SDS011;11046;49.558;8.674;2023-07-20T04:54:29;8.25;;;2.63;;
21769;SDS011;11046;49.558;8.674;2023-07-20T04:57:29;4.97;;;2.45;;
21769;SDS011;11046;49.558;8.674;2023-07-20T05:00:31;3.38;;;2.47;;
21769;SDS011;11046;49.558;8.674;2023-07-20T05:03:33;6.88;;;2.60;;
21769;SDS011;11046;49.558;8.674;2023-07-20T05:06:33;11.50;;;3.60;;
21769;SDS011;11046;49.558;8.674;2023-07-20T05:09:34;6.10;;;2.53;;
21769;SDS011;11046;49.558;8.674;2023-07-20T05:12:35;5.32;;;2.35;;
21769;SDS011;11046;49.558;8.674;2023-07-20T05:15:36;10.95;;;2.65;;
21769;SDS011;11046;49.558;8.674;2023-07-20T05:18:38;5.93;;;2.60;;
21769;SDS011;11046;49.558;8.674;2023-07-20T05:21:39;5.38;;;2.42;;
21769;SDS011;11046;49.558;8.674;2023-07-20T05:24:39;4.35;;;2.67;;
21769;SDS011;11046;49.558;8.674;2023-07-20T05:27:40;5.93;;;2.60;;
21769;SDS011;11046;49.558;8.674;2023-07-20T05:30:40;4.82;;;2.50;;
21769;SDS011;11046;49.558;8.674;2023-07-20T05:33:41;3.92;;;2.35;;
21769;SDS011;11046;49.558;8.674;2023-07-20T05:36:41;4.53;;;2.88;;
21769;SDS011;11046;49.558;8.674;2023-07-20T05:39:42;4.65;;;2.40;;
21769;SDS011;11046;49.558;8.674;2023-07-20T05:42:43;4.95;;;2.50;;
21769;SDS011;11046;49.558;8.674;2023-07-20T05:45:43;6.03;;;2.50;;
21769;SDS011;11046;49.558;8.674;2023-07-20T05:48:45;3.70;;;2.42;;
21769;SDS011;11046;49.558;8.674;2023-07-20T05:51:45;6.25;;;2.70;;
21769;SDS011;11046;49.558;8.674;2023-07-20T05:54:47;5.18;;;2.75;;
21769;SDS011;11046;49.558;8.674;2023-07-20T05:57:47;6.05;;;2.67;;
21769;SDS011;11046;49.558;8.674;2023-07-20T06:00:49;8.48;;;3.03;;
21769;SDS011;11046;49.558;8.674;2023-07-20T06:03:50;4.35;;;2.53;;
21769;SDS011;11046;49.558;8.674;2023-07-20T06:06:51;3.95;;;2.30;;
21769;SDS011;11046;49.558;8.674;2023-07-20T06:09:52;5.75;;;2.30;;
21769;SDS011;11046;49.558;8.674;2023-07-20T06:12:52;5.38;;;2.47;;
21769;SDS011;11046;49.558;8.674;2023-07-20T06:15:53;4.03;;;2.22;;
21769;SDS011;11046;49.558;8.674;2023-07-20T06:18:53;5.80;;;2.50;;
21769;SDS011;11046;49.558;8.674;2023-07-20T06:21:54;4.68;;;2.20;;
21769;SDS011;11046;49.558;8.674;2023-07-20T06:24:54;7.25;;;2.05;;
21769;SDS011;11046;49.558;8.674;2023-07-20T06:27:55;4.18;;;2.50;;
21769;SDS011;11046;49.558;8.674;2023-07-20T06:31:00;12.52;;;3.33;;
21769;SDS011;11046;49.558;8.674;2023-07-20T06:34:01;3.70;;;2.20;;
21769;SDS011;11046;49.558;8.674;2023-07-20T06:37:03;4.55;;;2.25;;
21769;SDS011;11046;49.558;8.674;2023-07-20T06:40:04;8.30;;;2.42;;
21769;SDS011;11046;49.558;8.674;2023-07-20T06:43:06;4.88;;;2.42;;
21769;SDS011;11046;49.558;8.674;2023-07-20T06:46:06;5.20;;;2.60;;
21769;SDS011;11046;49.558;8.674;2023-07-20T06:49:07;4.15;;;2.10;;
21769;SDS011;11046;49.558;8.674;2023-07-20T06:52:08;8.30;;;2.60;;
21769;SDS011;11046;49.558;8.674;2023-07-20T06:55:08;4.05;;;2.60;;
21769;SDS011;11046;49.558;8.674;2023-07-20T06:58:09;6.50;;;2.30;;
21769;SDS011;11046;49.558;8.674;2023-07-20T07:01:11;6.95;;;2.35;;
21769;SDS011;11046;49.558;8.674;2023-07-20T07:04:11;10.82;;;2.60;;
21769;SDS011;11046;49.558;8.674;2023-07-20T07:07:13;12.88;;;2.17;;
21769;SDS011;11046;49.558;8.674;2023-07-20T07:10:14;4.85;;;2.30;;
21769;SDS011;11046;49.558;8.674;2023-07-20T07:13:15;4.70;;;2.17;;
21769;SDS011;11046;49.558;8.674;2023-07-20T07:16:16;4.93;;;2.80;;
21769;SDS011;11046;49.558;8.674;2023-07-20T07:19:19;5.65;;;2.78;;
21769;SDS011;11046;49.558;8.674;2023-07-20T07:22:20;5.40;;;2.00;;
21769;SDS011;11046;49.558;8.674;2023-07-20T07:25:21;3.42;;;1.92;;
21769;SDS011;11046;49.558;8.674;2023-07-20T07:28:22;2.50;;;1.80;;
21769;SDS011;11046;49.558;8.674;2023-07-20T07:31:22;4.07;;;2.17;;
21769;SDS011;11046;49.558;8.674;2023-07-20T07:34:25;4.50;;;2.40;;
21769;SDS011;11046;49.558;8.674;2023-07-20T07:37:26;5.15;;;1.90;;
21769;SDS011;11046;49.558;8.674;2023-07-20T07:40:27;4.45;;;2.10;;
21769;SDS011;11046;49.558;8.674;2023-07-20T07:43:27;2.78;;;2.08;;
21769;SDS011;11046;49.558;8.674;2023-07-20T07:46:28;3.22;;;2.00;;
21769;SDS011;11046;49.558;8.674;2023-07-20T07:49:29;4.22;;;1.98;;
21769;SDS011;11046;49.558;8.674;2023-07-20T07:52:31;4.70;;;2.20;;
21769;SDS011;11046;49.558;8.674;2023-07-20T07:55:32;5.32;;;2.00;;
21769;SDS011;11046;49.558;8.674;2023-07-20T07:58:32;5.28;;;2.00;;
21769;SDS011;11046;49.558;8.674;2023-07-20T08:01:33;4.60;;;2.15;;
21769;SDS011;11046;49.558;8.674;2023-07-20T08:04:34;4.85;;;2.20;;
21769;SDS011;11046;49.558;8.674;2023-07-20T08:07:35;4.13;;;2.17;;
21769;SDS011;11046;49.558;8.674;2023-07-20T08:10:36;6.65;;;2.22;;
21769;SDS011;11046;49.558;8.674;2023-07-20T08:13:37;7.65;;;2.10;;
21769;SDS011;11046;49.558;8.674;2023-07-20T08:16:37;6.35;;;2.03;;
21769;SDS011;11046;49.558;8.674;2023-07-20T08:19:38;3.80;;;1.90;;
21769;SDS011;11046;49.558;8.674;2023-07-20T08:22:41;6.70;;;1.92;;
21769;SDS011;11046;49.558;8.674;2023-07-20T08:25:42;4.78;;;1.80;;
21769;SDS011;11046;49.558;8.674;2023-07-20T08:28:44;3.50;;;1.58;;
21769;SDS011;11046;49.558;8.674;2023-07-20T08:31:45;4.68;;;1.85;;
21769;SDS011;11046;49.558;8.674;2023-07-20T08:34:46;3.20;;;1.55;;
21769;SDS011;11046;49.558;8.674;2023-07-20T08:37:47;3.20;;;1.75;;
21769;SDS011;11046;49.558;8.674;2023-07-20T08:40:47;4.10;;;1.67;;
21769;SDS011;11046;49.558;8.674;2023-07-20T08:43:48;8.57;;;1.60;;
21769;SDS011;11046;49.558;8.674;2023-07-20T08:46:49;2.85;;;1.60;;
21769;SDS011;11046;49.558;8.674;2023-07-20T08:49:51;2.97;;;1.65;;
21769;SDS011;11046;49.558;8.674;2023-07-20T08:52:54;3.85;;;1.77;;
21769;SDS011;11046;49.558;8.674;2023-07-20T08:55:57;6.80;;;1.60;;
21769;SDS011;11046;49.558;8.674;2023-07-20T08:58:59;3.47;;;1.60;;
21769;SDS011;11046;49.558;8.674;2023-07-20T09:02:01;6.32;;;1.73;;
21769;SDS011;11046;49.558;8.674;2023-07-20T09:05:04;2.85;;;1.52;;
21769;SDS011;11046;49.558;8.674;2023-07-20T09:08:05;5.78;;;1.60;;
21769;SDS011;11046;49.558;8.674;2023-07-20T09:11:05;5.05;;;1.60;;
21769;SDS011;11046;49.558;8.674;2023-07-20T09:14:07;3.38;;;1.60;;
21769;SDS011;11046;49.558;8.674;2023-07-20T09:17:12;4.47;;;1.92;;
21769;SDS011;11046;49.558;8.674;2023-07-20T09:20:14;5.68;;;1.80;;
21769;SDS011;11046;49.558;8.674;2023-07-20T09:23:16;3.35;;;1.55;;
21769;SDS011;11046;49.558;8.674;2023-07-20T09:26:17;5.55;;;1.90;;
21769;SDS011;11046;49.558;8.674;2023-07-20T09:29:18;3.00;;;1.50;;
21769;SDS011;11046;49.558;8.674;2023-07-20T09:32:19;2.83;;;1.67;;
21769;SDS011;11046;49.558;8.674;2023-07-20T09:35:21;3.33;;;1.48;;
21769;SDS011;11046;49.558;8.674;2023-07-20T09:38:22;2.95;;;1.55;;
21769;SDS011;11046;49.558;8.674;2023-07-20T09:41:26;8.98;;;1.65;;
21769;SDS011;11046;49.558;8.674;2023-07-20T09:44:27;5.57;;;1.63;;
21769;SDS011;11046;49.558;8.674;2023-07-20T09:47:28;3.28;;;1.60;;
21769;SDS011;11046;49.558;8.674;2023-07-20T09:50:29;1.98;;;1.40;;
21769;SDS011;11046;49.558;8.674;2023-07-20T09:53:29;3.53;;;1.85;;
21769;SDS011;11046;49.558;8.674;2023-07-20T09:56:32;2.28;;;1.58;;
21769;SDS011;11046;49.558;8.674;2023-07-20T09:59:33;3.92;;;1.40;;
21769;SDS011;11046;49.558;8.674;2023-07-20T10:02:34;4.35;;;1.70;;
21769;SDS011;11046;49.558;8.674;2023-07-20T10:05:40;2.72;;;1.58;;
21769;SDS011;11046;49.558;8.674;2023-07-20T10:08:44;3.60;;;1.35;;
21769;SDS011;11046;49.558;8.674;2023-07-20T10:11:49;2.92;;;1.70;;
21769;SDS011;11046;49.558;8.674;2023-07-20T10:14:59;2.20;;;1.50;;
21769;SDS011;11046;49.558;8.674;2023-07-20T10:18:28;2.13;;;1.48;;
21769;SDS011;11046;49.558;8.674;2023-07-20T10:21:43;3.92;;;1.80;;
21769;SDS011;11046;49.558;8.674;2023-07-20T10:24:48;4.45;;;1.80;;
21769;SDS011;11046;49.558;8.674;2023-07-20T10:27:50;3.75;;;1.70;;
21769;SDS011;11046;49.558;8.674;2023-07-20T10:30:51;2.47;;;1.60;;
21769;SDS011;11046;49.558;8.674;2023-07-20T10:33:51;3.88;;;1.52;;
21769;SDS011;11046;49.558;8.674;2023-07-20T10:36:52;4.93;;;1.90;;
21769;SDS011;11046;49.558;8.674;2023-07-20T10:39:55;4.40;;;1.55;;
21769;SDS011;11046;49.558;8.674;2023-07-20T10:43:00;4.15;;;1.40;;
21769;SDS011;11046;49.558;8.674;2023-07-20T10:46:03;3.17;;;1.85;;
21769;SDS011;11046;49.558;8.674;2023-07-20T10:49:04;5.65;;;1.85;;
21769;SDS011;11046;49.558;8.674;2023-07-20T10:52:06;3.33;;;1.67;;
21769;SDS011;11046;49.558;8.674;2023-07-20T10:55:11;3.03;;;1.70;;
21769;SDS011;11046;49.558;8.674;2023-07-20T10:58:14;4.90;;;1.75;;
21769;SDS011;11046;49.558;8.674;2023-07-20T11:01:17;2.72;;;1.70;;
21769;SDS011;11046;49.558;8.674;2023-07-20T11:04:18;3.10;;;1.60;;
21769;SDS011;11046;49.558;8.674;2023-07-20T11:07:36;2.67;;;1.60;;
21769;SDS011;11046;49.558;8.674;2023-07-20T11:10:40;3.78;;;1.65;;
21769;SDS011;11046;49.558;8.674;2023-07-20T11:13:53;3.22;;;1.60;;
21769;SDS011;11046;49.558;8.674;2023-07-20T11:16:55;2.10;;;1.45;;
21769;SDS011;11046;49.558;8.674;2023-07-20T11:19:59;3.40;;;1.48;;
21769;SDS011;11046;49.558;8.674;2023-07-20T11:23:01;7.03;;;1.63;;
21769;SDS011;11046;49.558;8.674;2023-07-20T11:26:01;4.85;;;1.88;;
21769;SDS011;11046;49.558;8.674;2023-07-20T11:29:03;4.13;;;1.75;;
21769;SDS011;11046;49.558;8.674;2023-07-20T11:32:04;6.10;;;2.00;;
21769;SDS011;11046;49.558;8.674;2023-07-20T11:35:05;2.42;;;1.55;;
21769;SDS011;11046;49.558;8.674;2023-07-20T11:38:06;2.30;;;1.42;;
21769;SDS011;11046;49.558;8.674;2023-07-20T11:41:07;3.30;;;1.33;;
21769;SDS011;11046;49.558;8.674;2023-07-20T11:44:07;4.32;;;1.40;;
21769;SDS011;11046;49.558;8.674;2023-07-20T11:47:13;2.90;;;1.40;;
21769;SDS011;11046;49.558;8.674;2023-07-20T11:50:13;3.15;;;1.65;;
21769;SDS011;11046;49.558;8.674;2023-07-20T11:53:16;1.98;;;1.30;;
21769;SDS011;11046;49.558;8.674;2023-07-20T11:56:17;4.53;;;1.63;;
21769;SDS011;11046;49.558;8.674;2023-07-20T11:59:18;2.78;;;1.40;;
21769;SDS011;11046;49.558;8.674;2023-07-20T12:02:19;2.38;;;1.40;;
21769;SDS011;11046;49.558;8.674;2023-07-20T12:05:19;2.47;;;1.60;;
21769;SDS011;11046;49.558;8.674;2023-07-20T12:08:22;2.20;;;1.60;;
21769;SDS011;11046;49.558;8.674;2023-07-20T12:11:38;7.30;;;1.38;;
21769;SDS011;11046;49.558;8.674;2023-07-20T12:14:39;4.13;;;1.73;;
21769;SDS011;11046;49.558;8.674;2023-07-20T12:17:46;3.20;;;1.70;;
21769;SDS011;11046;49.558;8.674;2023-07-20T12:20:49;2.33;;;1.50;;
21769;SDS011;11046;49.558;8.674;2023-07-20T12:23:59;2.97;;;1.25;;
21769;SDS011;11046;49.558;8.674;2023-07-20T12:27:00;6.70;;;1.42;;
21769;SDS011;11046;49.558;8.674;2023-07-20T12:30:00;3.75;;;1.40;;
21769;SDS011;11046;49.558;8.674;2023-07-20T12:33:03;2.33;;;1.30;;
21769;SDS011;11046;49.558;8.674;2023-07-20T12:36:04;2.00;;;1.50;;
21769;SDS011;11046;49.558;8.674;2023-07-20T12:39:05;1.50;;;1.05;;
21769;SDS011;11046;49.558;8.674;2023-07-20T12:42:05;2.83;;;1.50;;
21769;SDS011;11046;49.558;8.674;2023-07-20T12:45:06;3.00;;;1.40;;
21769;SDS011;11046;49.558;8.674;2023-07-20T12:48:07;3.05;;;1.20;;
21769;SDS011;11046;49.558;8.674;2023-07-20T12:51:08;2.45;;;1.23;;
21769;SDS011;11046;49.558;8.674;2023-07-20T12:54:09;5.80;;;2.08;;
21769;SDS011;11046;49.558;8.674;2023-07-20T12:57:10;7.07;;;2.10;;
21769;SDS011;11046;49.558;8.674;2023-07-20T13:00:10;2.13;;;1.30;;
21769;SDS011;11046;49.558;8.674;2023-07-20T13:03:11;3.28;;;1.63;;
21769;SDS011;11046;49.558;8.674;2023-07-20T13:06:12;1.40;;;1.17;;
21769;SDS011;11046;49.558;8.674;2023-07-20T13:09:12;6.25;;;1.27;;
21769;SDS011;11046;49.558;8.674;2023-07-20T13:12:13;4.82;;;1.40;;
21769;SDS011;11046;49.558;8.674;2023-07-20T13:15:14;3.75;;;1.35;;
21769;SDS011;11046;49.558;8.674;2023-07-20T13:18:15;1.65;;;1.42;;
21769;SDS011;11046;49.558;8.674;2023-07-20T13:21:15;2.97;;;1.50;;
21769;SDS011;11046;49.558;8.674;2023-07-20T13:24:17;1.27;;;1.17;;
21769;SDS011;11046;49.558;8.674;2023-07-20T13:27:17;1.30;;;1.20;;
21769;SDS011;11046;49.558;8.674;2023-07-20T13:30:18;2.85;;;1.23;;
21769;SDS011;11046;49.558;8.674;2023-07-20T13:33:19;7.38;;;1.67;;
21769;SDS011;11046;49.558;8.674;2023-07-20T13:36:19;1.73;;;1.23;;
21769;SDS011;11046;49.558;8.674;2023-07-20T13:39:21;2.75;;;1.42;;
21769;SDS011;11046;49.558;8.674;2023-07-20T13:42:24;4.00;;;1.40;;
21769;SDS011;11046;49.558;8.674;2023-07-20T13:45:24;3.60;;;1.48;;
21769;SDS011;11046;49.558;8.674;2023-07-20T13:48:25;2.13;;;1.67;;
21769;SDS011;11046;49.558;8.674;2023-07-20T13:51:27;4.00;;;2.00;;
21769;SDS011;11046;49.558;8.674;2023-07-20T13:54:27;4.82;;;1.48;;
21769;SDS011;11046;49.558;8.674;2023-07-20T13:57:28;1.67;;;1.25;;
21769;SDS011;11046;49.558;8.674;2023-07-20T14:00:28;2.97;;;1.25;;
21769;SDS011;11046;49.558;8.674;2023-07-20T14:03:32;1.88;;;1.25;;
21769;SDS011;11046;49.558;8.674;2023-07-20T14:06:33;2.80;;;1.52;;
21769;SDS011;11046;49.558;8.674;2023-07-20T14:09:34;1.63;;;1.20;;
21769;SDS011;11046;49.558;8.674;2023-07-20T14:12:34;3.97;;;1.48;;
21769;SDS011;11046;49.558;8.674;2023-07-20T14:15:35;2.53;;;1.30;;
21769;SDS011;11046;49.558;8.674;2023-07-20T14:18:36;2.05;;;1.33;;
21769;SDS011;11046;49.558;8.674;2023-07-20T14:21:36;2.22;;;1.40;;
21769;SDS011;11046;49.558;8.674;2023-07-20T14:24:37;1.60;;;1.25;;
21769;SDS011;11046;49.558;8.674;2023-07-20T14:27:37;2.92;;;1.30;;
21769;SDS011;11046;49.558;8.674;2023-07-20T14:30:38;2.63;;;1.40;;
21769;SDS011;11046;49.558;8.674;2023-07-20T14:33:39;1.98;;;1.40;;
21769;SDS011;11046;49.558;8.674;2023-07-20T14:36:39;3.55;;;1.40;;
21769;SDS011;11046;49.558;8.674;2023-07-20T14:39:40;1.20;;;1.10;;
21769;SDS011;11046;49.558;8.674;2023-07-20T14:42:40;1.80;;;1.10;;
21769;SDS011;11046;49.558;8.674;2023-07-20T14:45:41;4.03;;;1.40;;
21769;SDS011;11046;49.558;8.674;2023-07-20T14:48:42;1.60;;;1.23;;
21769;SDS011;11046;49.558;8.674;2023-07-20T14:51:42;1.58;;;1.30;;
21769;SDS011;11046;49.558;8.674;2023-07-20T14:54:46;2.40;;;1.30;;
21769;SDS011;11046;49.558;8.674;2023-07-20T14:57:50;2.83;;;1.27;;
21769;SDS011;11046;49.558;8.674;2023-07-20T15:00:51;2.60;;;1.27;;
21769;SDS011;11046;49.558;8.674;2023-07-20T15:03:52;1.95;;;1.13;;
21769;SDS011;11046;49.558;8.674;2023-07-20T15:06:53;1.65;;;1.20;;
21769;SDS011;11046;49.558;8.674;2023-07-20T15:09:54;1.63;;;1.38;;
21769;SDS011;11046;49.558;8.674;2023-07-20T15:12:55;2.30;;;1.52;;
21769;SDS011;11046;49.558;8.674;2023-07-20T15:15:56;5.35;;;1.55;;
21769;SDS011;11046;49.558;8.674;2023-07-20T15:18:57;2.00;;;1.27;;
21769;SDS011;11046;49.558;8.674;2023-07-20T15:21:57;4.13;;;1.30;;
21769;SDS011;11046;49.558;8.674;2023-07-20T15:24:58;2.60;;;1.50;;
21769;SDS011;11046;49.558;8.674;2023-07-20T15:27:59;4.40;;;1.45;;
21769;SDS011;11046;49.558;8.674;2023-07-20T15:31:03;2.10;;;1.25;;
21769;SDS011;11046;49.558;8.674;2023-07-20T15:34:05;5.97;;;1.50;;
21769;SDS011;11046;49.558;8.674;2023-07-20T15:37:06;4.70;;;1.48;;
21769;SDS011;11046;49.558;8.674;2023-07-20T15:40:06;5.95;;;1.50;;
21769;SDS011;11046;49.558;8.674;2023-07-20T15:43:08;2.60;;;1.42;;
21769;SDS011;11046;49.558;8.674;2023-07-20T15:49:24;3.70;;;1.27;;
21769;SDS011;11046;49.558;8.674;2023-07-20T15:52:26;1.90;;;1.50;;
21769;SDS011;11046;49.558;8.674;2023-07-20T15:55:27;2.70;;;1.60;;
21769;SDS011;11046;49.558;8.674;2023-07-20T15:58:28;2.63;;;1.48;;
21769;SDS011;11046;49.558;8.674;2023-07-20T16:01:29;4.35;;;1.55;;
21769;SDS011;11046;49.558;8.674;2023-07-20T16:04:31;3.72;;;1.52;;
21769;SDS011;11046;49.558;8.674;2023-07-20T16:07:31;4.50;;;1.48;;
21769;SDS011;11046;49.558;8.674;2023-07-20T16:10:32;4.50;;;1.60;;
21769;SDS011;11046;49.558;8.674;2023-07-20T16:13:33;2.75;;;1.58;;
21769;SDS011;11046;49.558;8.674;2023-07-20T16:16:37;2.90;;;1.48;;
21769;SDS011;11046;49.558;8.674;2023-07-20T16:19:37;1.42;;;1.33;;
21769;SDS011;11046;49.558;8.674;2023-07-20T16:22:38;2.55;;;1.42;;
21769;SDS011;11046;49.558;8.674;2023-07-20T16:25:39;3.53;;;1.55;;
21769;SDS011;11046;49.558;8.674;2023-07-20T16:28:40;3.03;;;1.63;;
21769;SDS011;11046;49.558;8.674;2023-07-20T16:31:41;2.33;;;1.50;;
21769;SDS011;11046;49.558;8.674;2023-07-20T16:34:43;3.10;;;1.67;;
21769;SDS011;11046;49.558;8.674;2023-07-20T16:37:43;2.05;;;1.58;;
21769;SDS011;11046;49.558;8.674;2023-07-20T16:40:44;3.67;;;2.55;;
21769;SDS011;11046;49.558;8.674;2023-07-20T16:43:44;2.05;;;1.60;;
21769;SDS011;11046;49.558;8.674;2023-07-20T16:46:45;3.83;;;1.55;;
21769;SDS011;11046;49.558;8.674;2023-07-20T16:49:45;2.55;;;1.70;;
21769;SDS011;11046;49.558;8.674;2023-07-20T16:52:46;3.17;;;1.58;;
21769;SDS011;11046;49.558;8.674;2023-07-20T16:55:50;3.25;;;1.40;;
21769;SDS011;11046;49.558;8.674;2023-07-20T16:58:51;2.80;;;1.60;;
21769;SDS011;11046;49.558;8.674;2023-07-20T17:01:52;5.07;;;1.70;;
21769;SDS011;11046;49.558;8.674;2023-07-20T17:04:52;1.95;;;1.40;;
21769;SDS011;11046;49.558;8.674;2023-07-20T17:07:54;3.83;;;1.60;;
21769;SDS011;11046;49.558;8.674;2023-07-20T17:10:55;2.47;;;1.67;;
21769;SDS011;11046;49.558;8.674;2023-07-20T17:13:55;2.88;;;1.40;;
21769;SDS011;11046;49.558;8.674;2023-07-20T17:16:56;3.72;;;1.70;;
21769;SDS011;11046;49.558;8.674;2023-07-20T17:19:57;5.22;;;1.80;;
21769;SDS011;11046;49.558;8.674;2023-07-20T17:22:57;2.85;;;1.63;;
21769;SDS011;11046;49.558;8.674;2023-07-20T17:25:58;4.35;;;1.88;;
21769;SDS011;11046;49.558;8.674;2023-07-20T17:28:58;2.55;;;1.60;;
21769;SDS011;11046;49.558;8.674;2023-07-20T17:32:00;3.65;;;1.88;;
21769;SDS011;11046;49.558;8.674;2023-07-20T17:35:00;3.88;;;1.88;;
21769;SDS011;11046;49.558;8.674;2023-07-20T17:38:01;2.90;;;1.75;;
21769;SDS011;11046;49.558;8.674;2023-07-20T17:41:01;5.18;;;1.95;;
21769;SDS011;11046;49.558;8.674;2023-07-20T17:44:02;2.40;;;1.63;;
21769;SDS011;11046;49.558;8.674;2023-07-20T17:47:03;1.60;;;1.50;;
21769;SDS011;11046;49.558;8.674;2023-07-20T17:50:08;2.78;;;1.38;;
21769;SDS011;11046;49.558;8.674;2023-07-20T17:53:11;2.42;;;1.80;;
21769;SDS011;11046;49.558;8.674;2023-07-20T17:56:12;2.60;;;1.40;;
21769;SDS011;11046;49.558;8.674;2023-07-20T17:59:13;6.25;;;2.08;;
21769;SDS011;11046;49.558;8.674;2023-07-20T18:02:14;1.70;;;1.40;;
21769;SDS011;11046;49.558;8.674;2023-07-20T18:05:14;2.45;;;1.50;;
21769;SDS011;11046;49.558;8.674;2023-07-20T18:08:16;2.13;;;1.58;;
21769;SDS011;11046;49.558;8.674;2023-07-20T18:11:16;2.53;;;1.63;;
21769;SDS011;11046;49.558;8.674;2023-07-20T18:14:17;8.65;;;1.70;;
21769;SDS011;11046;49.558;8.674;2023-07-20T18:17:18;4.35;;;1.55;;
21769;SDS011;11046;49.558;8.674;2023-07-20T18:20:18;5.13;;;1.70;;
21769;SDS011;11046;49.558;8.674;2023-07-20T18:23:19;5.03;;;1.60;;
21769;SDS011;11046;49.558;8.674;2023-07-20T18:26:20;2.72;;;1.73;;